BIKFCYYR

Guest
Details From BIKF - Keflavik
To CYYR - Goose Bay
Flight Number -
Tags decoded
Created
Modified
Stats Distance 1,316 nm / 2,438 km
Max Altitude 0 ft / 0 m
Waypoints 2
Social Downloads 1
Likes 0
Share VATSIM

Download

Looking for another format? Having issues loading an existing format? Contact us
Advertisement - Login to hide

Notes

Requested: BIKF CYYR

Route

BIKF CYYR

ID Type Via Altitude Latitude Longitude Leg Dist Tot Dist Heading (true) Name
O BIKF APT - 0 ft / 0 m 63.98161˚ -22.61456˚ - 0 nm - Keflavik
O CYYR APT - 0 ft / 0 m 53.31882˚ -60.42389˚ 1316 nm 1316 nm 259° / 226° Goose Bay

Altitude Profile

Advertisement - Login to hide

Weather


0- 5 10 15 20 25 30 35+ Temperature / ° C

Clouds and Precipitation
Forecast for 2017-12-13 12:00 UTC. Updated 27 minutes ago

Ground ~20,000 ft ~40,000 ft Winds

BIKF

Details ICAO BIKF (KEF)
Name Keflavik
Region Iceland
Timezone Atlantic/Reykjavik (UTC+0.0)
Stats Elevation 170 ft / 52 m (AMSL)
Location 63.981612° -22.614563°
Runways 2
Magnetic Variation 14.068° W

METAR

BIKF 130930Z 09005KT 9999 FEW045 M01/M02 Q0976 R19/190068

Decode

TAF

TAF BIKF 130802Z 1309/1409 09010KT 9999 SCT030 BKN045 TXM00/1318Z TNM03/1403Z BECMG 1321/1324 03015KT

Decode

Departure Runways

ID Width Length Bearing (true) Bearing (mag) Surface Threshold Offset Overrun Length
02 197 ft / 60 m 9,997 ft / 3,047 m 0.02° 14.09° Asphalt 0 ft / 0 m 492 ft / 150 m
11 197 ft / 60 m 10,022 ft / 3,055 m 89.97° 104.04° Asphalt 0 ft / 0 m 246 ft / 75 m
20 197 ft / 60 m 9,997 ft / 3,047 m 180.02° 194.09° Asphalt 0 ft / 0 m 98 ft / 30 m
29 197 ft / 60 m 10,022 ft / 3,055 m 270.02° 284.09° Asphalt 0 ft / 0 m 197 ft / 60 m

CYYR

Details ICAO CYYR (YYR)
Name Goose Bay
Region Canada
Timezone America/Goose_Bay (UTC-4.0)
Stats Elevation 160 ft / 49 m (AMSL)
Location 53.318820° -60.423890°
Runways 2
Magnetic Variation 20.964° W

METAR

CYYR 130942Z 31002KT 15SM BKN008 OVC180 M21/M25 A3016 RMK SF6AS2 SLP220

Decode

TAF

TAF CYYR 130530Z 1306/1406 05005KT P6SM BKN170 BKN230 BECMG 1310/1312 BKN030 OVC120 FM131200 05010KT 6SM -SN OVC030 TEMPO 1312/1314 2SM -SN OVC020 BECMG 1314/1316 1/2SM SN VV005 FM131600 05018KT 1/2SM SN BLSN VV005 FM132000 06020KT 1SM -SNPL OVC020 FM140000 06015KT 2SM -FZRA -PL BR OVC020 FM140400 09015KT 6SM -RA BR OVC020 RMK NXT FCST BY 131200Z

Decode

Destination Runways

ID Width Length Bearing (true) Bearing (mag) Surface Threshold Offset Overrun Length
08 209 ft / 64 m 11,055 ft / 3,369 m 54.70° 75.66° Asphalt 0 ft / 0 m 1,000 ft / 305 m
16 200 ft / 61 m 9,515 ft / 2,900 m 132.96° 153.92° Asphalt 0 ft / 0 m 0 ft / 0 m
26 209 ft / 64 m 11,055 ft / 3,369 m 234.73° 255.69° Asphalt 0 ft / 0 m 1,000 ft / 305 m
34 200 ft / 61 m 9,515 ft / 2,900 m 312.99° 333.95° Asphalt 0 ft / 0 m 500 ft / 152 m

Popular Alternatives